createdAt,value
2018-05-18T00:02:19.583Z,1.40
2018-05-18T00:04:46.017Z,1.60
2018-05-18T00:07:12.361Z,1.50
2018-05-18T00:09:40.785Z,1.70
2018-05-18T00:12:07.193Z,1.50
2018-05-18T00:14:35.380Z,1.40
2018-05-18T00:17:02.007Z,1.40
2018-05-18T00:19:31.479Z,1.67
2018-05-18T00:21:58.602Z,1.47
2018-05-18T00:24:24.932Z,1.40
2018-05-18T00:26:51.815Z,1.30
2018-05-18T00:29:18.931Z,1.40
2018-05-18T00:31:49.012Z,1.50
2018-05-18T00:34:15.481Z,1.40
2018-05-18T00:36:41.960Z,1.33
2018-05-18T00:39:08.289Z,1.40
2018-05-18T00:41:35.105Z,1.40
2018-05-18T00:44:01.554Z,1.40
2018-05-18T00:46:28.585Z,1.50
2018-05-18T00:48:55.065Z,1.50
2018-05-18T00:51:22.299Z,1.50
2018-05-18T00:53:48.876Z,1.80
2018-05-18T00:56:15.917Z,1.40
2018-05-18T00:58:42.249Z,1.40
2018-05-18T01:01:08.644Z,1.50
2018-05-18T01:03:35.013Z,1.40
2018-05-18T01:06:01.362Z,1.57
2018-05-18T01:08:28.618Z,1.50
2018-05-18T01:10:54.938Z,1.70
2018-05-18T01:13:21.372Z,1.43
2018-05-18T01:15:48.118Z,1.20
2018-05-18T01:18:14.720Z,1.40
2018-05-18T01:20:41.043Z,1.30
2018-05-18T01:23:08.054Z,1.60
2018-05-18T01:25:35.322Z,1.20
2018-05-18T01:28:01.661Z,1.40
2018-05-18T01:30:28.279Z,1.40
2018-05-18T01:32:54.607Z,1.30
2018-05-18T01:35:21.129Z,1.20
2018-05-18T01:37:48.262Z,1.40
2018-05-18T01:40:14.947Z,1.40
2018-05-18T01:42:41.301Z,1.40
2018-05-18T01:45:07.712Z,1.30
2018-05-18T01:47:34.549Z,1.20
2018-05-18T01:50:01.083Z,1.30
2018-05-18T01:52:27.441Z,1.30
2018-05-18T01:54:53.860Z,1.63
2018-05-18T01:57:21.556Z,1.23
2018-05-18T01:59:48.587Z,1.40
2018-05-18T02:02:15.023Z,1.40
2018-05-18T02:04:42.429Z,1.30
2018-05-18T02:07:09.254Z,1.20
2018-05-18T02:09:35.679Z,1.30
2018-05-18T02:12:02.492Z,1.30
2018-05-18T02:14:28.857Z,1.40
2018-05-18T02:16:55.286Z,1.40
2018-05-18T02:19:22.722Z,1.20
2018-05-18T02:21:49.664Z,1.40
2018-05-18T02:24:16.660Z,1.30
2018-05-18T02:26:43.067Z,1.47
2018-05-18T02:29:09.529Z,1.40
2018-05-18T02:31:36.752Z,1.40
2018-05-18T02:34:04.629Z,1.30
2018-05-18T02:36:31.354Z,1.30
2018-05-18T02:38:58.578Z,1.30
2018-05-18T02:41:25.143Z,1.23
2018-05-18T02:43:51.816Z,1.40
2018-05-18T02:46:18.912Z,1.47
2018-05-18T02:48:45.357Z,1.30
2018-05-18T02:51:12.323Z,1.50
2018-05-18T02:53:41.841Z,1.67
2018-05-18T02:56:08.281Z,1.40
2018-05-18T02:58:37.133Z,1.60
2018-05-18T03:01:04.756Z,1.60
2018-05-18T03:03:31.301Z,1.60
2018-05-18T03:05:59.390Z,1.50
2018-05-18T03:08:26.220Z,1.37
2018-05-18T03:10:55.032Z,1.50
2018-05-18T03:13:22.291Z,1.63
2018-05-18T03:15:50.031Z,1.63
2018-05-18T03:18:16.943Z,2.00
2018-05-18T03:20:44.109Z,2.60
2018-05-18T03:23:10.454Z,2.10
2018-05-18T03:25:37.956Z,1.90
2018-05-18T03:28:04.392Z,1.70
2018-05-18T03:30:30.911Z,1.70
2018-05-18T03:32:57.261Z,1.80
2018-05-18T03:35:23.646Z,2.00
2018-05-18T03:37:50.160Z,2.10
2018-05-18T03:40:16.540Z,2.20
2018-05-18T03:42:43.681Z,1.80
2018-05-18T03:45:10.046Z,1.70
2018-05-18T03:47:36.522Z,1.40
2018-05-18T03:50:03.115Z,1.40
2018-05-18T03:52:29.505Z,1.70
2018-05-18T03:54:57.230Z,2.03
2018-05-18T03:57:23.632Z,2.20
2018-05-18T03:59:50.031Z,1.63
2018-05-18T04:02:17.076Z,1.70
2018-05-18T04:04:43.606Z,1.93
2018-05-18T04:07:10.047Z,1.70
2018-05-18T04:09:37.601Z,1.40
2018-05-18T04:12:04.054Z,1.60
2018-05-18T04:14:31.313Z,1.57
2018-05-18T04:16:57.767Z,1.60
2018-05-18T04:19:24.140Z,1.50
2018-05-18T04:21:52.650Z,1.40
2018-05-18T04:24:19.008Z,1.70
2018-05-18T04:26:46.533Z,1.40
2018-05-18T04:29:13.713Z,1.53
2018-05-18T04:31:40.313Z,1.50
2018-05-18T04:34:06.709Z,2.80
2018-05-18T04:36:33.151Z,3.67
2018-05-18T04:38:59.527Z,2.80
2018-05-18T04:41:25.918Z,2.30
2018-05-18T04:43:52.940Z,2.47
2018-05-18T04:46:20.460Z,2.67
2018-05-18T04:48:46.927Z,2.90
2018-05-18T04:51:13.819Z,3.50
2018-05-18T04:53:40.271Z,1.87
2018-05-18T04:56:06.731Z,2.10
2018-05-18T04:58:35.867Z,2.67
2018-05-18T05:01:02.462Z,2.80
2018-05-18T05:03:29.937Z,2.63
2018-05-18T05:05:57.492Z,2.83
2018-05-18T05:08:24.765Z,2.20
2018-05-18T05:10:51.331Z,2.00
2018-05-18T05:13:17.679Z,2.60
2018-05-18T05:15:45.198Z,2.00
2018-05-18T05:18:11.705Z,1.93
2018-05-18T05:20:38.355Z,2.50
2018-05-18T05:23:04.971Z,2.80
2018-05-18T05:25:32.862Z,3.73
2018-05-18T05:28:00.502Z,2.40
2018-05-18T05:30:29.707Z,2.20
2018-05-18T05:32:56.313Z,2.20
2018-05-18T05:35:22.762Z,2.00
2018-05-18T05:37:49.352Z,1.70
2018-05-18T05:40:15.804Z,2.00
2018-05-18T05:42:42.163Z,1.80
2018-05-18T05:45:08.759Z,1.73
2018-05-18T05:47:35.178Z,1.90
2018-05-18T05:50:03.650Z,1.70
2018-05-18T05:52:30.887Z,2.10
2018-05-18T05:54:58.165Z,1.50
2018-05-18T05:57:24.859Z,1.90
2018-05-18T05:59:51.534Z,1.60
2018-05-18T06:02:18.963Z,1.77
2018-05-18T06:04:45.411Z,2.10
2018-05-18T06:07:13.710Z,2.13
2018-05-18T06:09:48.774Z,2.00
2018-05-18T06:12:15.203Z,2.20
2018-05-18T06:14:41.693Z,2.33
2018-05-18T06:17:08.338Z,2.20
2018-05-18T06:19:34.995Z,2.50
2018-05-18T06:22:02.490Z,2.10
2018-05-18T06:24:29.507Z,1.87
2018-05-18T06:26:56.227Z,1.93
2018-05-18T06:29:23.773Z,2.40
2018-05-18T06:31:50.217Z,1.90
2018-05-18T06:34:17.438Z,2.50
2018-05-18T06:36:43.971Z,2.10
2018-05-18T06:39:10.446Z,2.37
2018-05-18T06:41:37.569Z,1.70
2018-05-18T06:44:04.117Z,2.30
2018-05-18T06:46:31.429Z,2.37
2018-05-18T06:48:59.123Z,3.00
2018-05-18T06:51:26.778Z,2.20
2018-05-18T06:53:53.427Z,2.10
2018-05-18T06:56:20.616Z,2.17
2018-05-18T06:58:47.541Z,1.87
2018-05-18T07:01:14.258Z,1.80
2018-05-18T07:03:40.968Z,2.30
2018-05-18T07:06:07.628Z,2.20
2018-05-18T07:08:34.731Z,2.33
2018-05-18T07:11:01.335Z,1.90
2018-05-18T07:13:27.758Z,1.93
2018-05-18T07:15:54.282Z,2.30
2018-05-18T07:18:21.097Z,2.40
2018-05-18T07:20:47.729Z,2.20
2018-05-18T07:23:14.229Z,3.10
2018-05-18T07:25:40.861Z,4.47
2018-05-18T07:28:09.008Z,2.60
2018-05-18T07:30:35.686Z,2.60
2018-05-18T07:33:02.714Z,2.80
2018-05-18T07:35:29.594Z,2.63
2018-05-18T07:37:56.081Z,2.17
2018-05-18T07:40:22.603Z,2.10
2018-05-18T07:42:49.022Z,2.20
2018-05-18T07:45:15.515Z,2.50
2018-05-18T07:47:41.917Z,2.80
2018-05-18T07:50:08.479Z,2.53
2018-05-18T07:52:34.980Z,2.37
2018-05-18T07:55:01.389Z,2.33
2018-05-18T07:57:27.791Z,2.30
2018-05-18T07:59:54.216Z,2.40
2018-05-18T08:02:21.455Z,3.00
2018-05-18T08:04:48.308Z,2.63
2018-05-18T08:07:15.152Z,2.20
2018-05-18T08:09:41.819Z,3.43
2018-05-18T08:12:08.876Z,4.03
2018-05-18T08:14:36.166Z,2.97
2018-05-18T08:17:05.076Z,2.50
2018-05-18T08:19:31.873Z,3.70
2018-05-18T08:21:58.574Z,2.40
2018-05-18T08:24:26.481Z,2.77
2018-05-18T08:26:53.345Z,2.67
2018-05-18T08:29:19.972Z,3.13
2018-05-18T08:31:46.476Z,2.27
2018-05-18T08:34:14.353Z,2.40
2018-05-18T08:36:43.881Z,3.93
2018-05-18T08:39:12.264Z,2.80
2018-05-18T08:41:39.549Z,3.20
2018-05-18T08:44:07.622Z,3.57
2018-05-18T08:46:34.437Z,3.20
2018-05-18T08:49:01.577Z,3.00
2018-05-18T08:51:31.528Z,3.23
2018-05-18T08:53:58.220Z,2.83
2018-05-18T08:56:24.670Z,2.70
2018-05-18T08:58:56.506Z,3.17
2018-05-18T09:01:23.490Z,2.33
2018-05-18T09:03:50.134Z,3.07
2018-05-18T09:06:21.739Z,2.40
2018-05-18T09:08:48.622Z,3.47
2018-05-18T09:11:16.628Z,2.70
2018-05-18T09:16:16.919Z,2.33
2018-05-18T09:18:43.908Z,2.47
2018-05-18T09:21:10.362Z,2.33
2018-05-18T09:23:37.138Z,2.50
2018-05-18T09:26:06.753Z,2.30
2018-05-18T09:28:36.648Z,2.00
2018-05-18T09:31:06.581Z,2.47
2018-05-18T09:33:33.758Z,2.60
2018-05-18T09:36:00.793Z,2.20
2018-05-18T09:38:27.362Z,2.37
2018-05-18T09:40:54.105Z,2.23
2018-05-18T09:43:23.952Z,2.03
2018-05-18T09:45:50.914Z,2.53
2018-05-18T09:48:19.551Z,2.50
2018-05-18T09:50:46.110Z,2.90
2018-05-18T09:53:13.759Z,2.70
2018-05-18T09:55:39.738Z,2.57
2018-05-18T09:58:06.822Z,2.47
2018-05-18T10:00:33.672Z,2.47
2018-05-18T10:05:52.670Z,2.97
2018-05-18T10:08:19.159Z,2.93
2018-05-18T10:10:45.838Z,2.90
2018-05-18T10:13:12.281Z,3.00
2018-05-18T10:15:38.744Z,2.77
2018-05-18T10:18:05.537Z,2.30
2018-05-18T10:20:32.061Z,2.80
2018-05-18T10:23:02.600Z,3.13
2018-05-18T10:25:29.508Z,3.50
2018-05-18T10:30:46.475Z,2.40
2018-05-18T10:33:13.366Z,2.33
2018-05-18T10:35:39.766Z,2.93
2018-05-18T10:38:06.200Z,2.80
2018-05-18T10:40:34.191Z,2.53
2018-05-18T10:43:00.662Z,3.13
2018-05-18T10:45:27.753Z,2.40
2018-05-18T10:47:54.414Z,3.77
2018-05-18T10:50:20.939Z,3.00
2018-05-18T10:52:47.406Z,2.80
2018-05-18T10:55:13.853Z,2.63
2018-05-18T10:57:41.293Z,4.23
2018-05-18T11:00:08.076Z,3.47
2018-05-18T11:02:34.646Z,3.13
2018-05-18T11:05:01.318Z,2.70
2018-05-18T11:07:27.798Z,2.83
2018-05-18T11:09:54.648Z,2.70
2018-05-18T11:12:21.330Z,2.50
2018-05-18T11:14:47.773Z,3.97
2018-05-18T11:17:14.257Z,2.30
2018-05-18T11:19:40.726Z,2.20
2018-05-18T11:22:07.360Z,2.10
2018-05-18T11:27:22.345Z,2.40
2018-05-18T11:29:51.425Z,2.20
2018-05-18T11:32:19.538Z,2.30
2018-05-18T11:34:46.016Z,2.47
2018-05-18T11:37:12.529Z,2.83
2018-05-18T11:39:39.065Z,2.40
2018-05-18T11:42:05.550Z,2.47
2018-05-18T11:44:37.991Z,2.17
2018-05-18T11:47:06.997Z,2.30
2018-05-18T11:49:33.615Z,2.70
2018-05-18T11:52:00.284Z,2.37
2018-05-18T11:54:27.988Z,2.67
2018-05-18T11:56:54.350Z,2.40
2018-05-18T11:59:21.081Z,2.73
2018-05-18T12:01:47.655Z,2.30
2018-05-18T12:04:14.095Z,3.23
2018-05-18T12:06:40.780Z,2.50
2018-05-18T12:09:07.257Z,2.40
2018-05-18T12:11:33.829Z,2.53
2018-05-18T12:14:00.304Z,2.50
2018-05-18T12:16:26.928Z,2.60
2018-05-18T12:18:53.412Z,2.60
2018-05-18T12:21:19.902Z,2.50
2018-05-18T12:23:46.267Z,3.33
2018-05-18T12:26:12.752Z,2.70
2018-05-18T12:28:39.078Z,2.70
2018-05-18T12:31:05.455Z,3.13
2018-05-18T12:33:31.986Z,4.00
2018-05-18T12:35:58.361Z,3.77
2018-05-18T12:38:24.969Z,2.70
2018-05-18T12:40:58.740Z,2.83
2018-05-18T12:43:25.284Z,2.33
2018-05-18T12:45:53.110Z,2.70
2018-05-18T12:48:20.927Z,3.90
2018-05-18T12:50:47.480Z,3.30
2018-05-18T12:53:14.017Z,2.73
2018-05-18T12:55:40.791Z,4.00
2018-05-18T12:58:07.582Z,3.13
2018-05-18T13:00:37.679Z,2.73
2018-05-18T13:03:04.530Z,3.00
2018-05-18T13:05:32.567Z,2.87
2018-05-18T13:08:01.240Z,2.40
2018-05-18T13:10:28.830Z,2.37
2018-05-18T13:12:55.408Z,2.57
2018-05-18T13:15:23.100Z,2.97
2018-05-18T13:17:49.694Z,2.70
2018-05-18T13:20:17.647Z,3.27
2018-05-18T13:22:44.561Z,2.70
2018-05-18T13:25:11.401Z,3.40
2018-05-18T13:27:42.305Z,2.63
2018-05-18T13:30:12.484Z,3.20
2018-05-18T13:32:40.058Z,3.07
2018-05-18T13:35:07.053Z,3.20
2018-05-18T13:37:33.785Z,2.70
2018-05-18T13:40:00.170Z,2.80
2018-05-18T13:45:05.621Z,2.50
2018-05-18T13:47:33.047Z,2.60
2018-05-18T13:49:59.560Z,3.90
2018-05-18T13:52:27.786Z,3.30
2018-05-18T13:54:54.523Z,2.73
2018-05-18T13:57:21.258Z,2.50
2018-05-18T14:02:27.252Z,2.83
2018-05-18T14:04:53.678Z,2.80
2018-05-18T14:07:20.404Z,2.93
2018-05-18T14:09:46.803Z,3.07
2018-05-18T14:12:13.346Z,4.17
2018-05-18T14:14:39.818Z,2.77
2018-05-18T14:17:06.241Z,2.60
2018-05-18T14:19:32.683Z,2.50
2018-05-18T14:21:59.358Z,3.00
2018-05-18T14:24:26.761Z,2.20
2018-05-18T14:26:54.848Z,2.90
2018-05-18T14:29:22.392Z,2.73
2018-05-18T14:31:52.405Z,2.93
2018-05-18T14:34:20.721Z,2.40
2018-05-18T14:36:47.522Z,2.33
2018-05-18T14:39:14.856Z,2.73
2018-05-18T14:41:41.907Z,2.50
2018-05-18T14:44:11.190Z,2.73
2018-05-18T14:46:37.732Z,2.60
2018-05-18T14:49:04.735Z,3.40
2018-05-18T14:51:31.199Z,2.70
2018-05-18T14:53:57.567Z,3.10
2018-05-18T14:56:24.002Z,2.80
2018-05-18T14:58:51.732Z,2.80
2018-05-18T15:01:24.299Z,2.87
2018-05-18T15:03:51.141Z,3.00
2018-05-18T15:06:17.562Z,2.60
2018-05-18T15:08:44.188Z,3.10
2018-05-18T15:11:10.589Z,3.00
2018-05-18T15:13:37.361Z,2.83
2018-05-18T15:16:03.872Z,2.80
2018-05-18T15:18:30.265Z,2.60
2018-05-18T15:20:56.733Z,2.70
2018-05-18T15:23:23.167Z,2.93
2018-05-18T15:25:49.596Z,2.70
2018-05-18T15:28:15.937Z,2.50
2018-05-18T15:30:42.381Z,2.80
2018-05-18T15:33:08.754Z,2.30
2018-05-18T15:35:35.128Z,2.67
2018-05-18T15:38:01.476Z,2.90
2018-05-18T15:40:27.827Z,7.37
2018-05-18T15:42:54.300Z,2.80
2018-05-18T15:45:20.664Z,2.90
2018-05-18T15:47:47.000Z,2.90
2018-05-18T15:50:13.395Z,2.70
2018-05-18T15:52:39.783Z,2.73
2018-05-18T15:55:06.134Z,3.27
2018-05-18T15:57:32.604Z,2.47
2018-05-18T15:59:58.884Z,2.10
2018-05-18T16:02:25.253Z,2.97
2018-05-18T16:04:51.680Z,2.60
2018-05-18T16:07:18.857Z,3.27
2018-05-18T16:09:45.240Z,2.70
2018-05-18T16:12:11.577Z,2.13
2018-05-18T16:14:37.960Z,3.00
2018-05-18T16:17:04.305Z,2.63
2018-05-18T16:19:30.705Z,2.70
2018-05-18T16:21:57.032Z,2.53
2018-05-18T16:24:23.468Z,2.30
2018-05-18T16:26:49.795Z,2.20
2018-05-18T16:29:16.139Z,2.73
2018-05-18T16:31:42.517Z,2.27
2018-05-18T16:34:08.840Z,2.33
2018-05-18T16:36:35.400Z,1.90
2018-05-18T16:39:01.784Z,2.20
2018-05-18T16:41:28.119Z,2.30
2018-05-18T16:43:54.455Z,2.20
2018-05-18T16:46:20.793Z,1.80
2018-05-18T16:48:47.132Z,1.70
2018-05-18T16:51:13.456Z,2.10
2018-05-18T16:53:39.800Z,2.33
2018-05-18T16:56:06.182Z,2.37
2018-05-18T16:58:32.543Z,2.00
2018-05-18T17:00:58.876Z,2.07
2018-05-18T17:03:25.285Z,1.90
2018-05-18T17:05:51.611Z,2.80
2018-05-18T17:08:17.951Z,2.60
2018-05-18T17:10:44.268Z,2.20
2018-05-18T17:13:10.722Z,2.17
2018-05-18T17:15:37.140Z,2.43
2018-05-18T17:18:03.660Z,2.40
2018-05-18T17:20:30.054Z,1.90
2018-05-18T17:22:56.426Z,2.10
2018-05-18T17:25:22.746Z,2.00
2018-05-18T17:27:49.129Z,2.10
2018-05-18T17:30:15.471Z,2.27
2018-05-18T17:32:41.817Z,2.07
2018-05-18T17:35:08.209Z,2.40
2018-05-18T17:37:34.540Z,2.07
2018-05-18T17:40:00.895Z,1.73
2018-05-18T17:42:27.307Z,2.00
2018-05-18T17:44:53.641Z,2.23
2018-05-18T17:47:19.968Z,1.83
2018-05-18T17:49:46.364Z,2.17
2018-05-18T17:52:12.701Z,2.00
2018-05-18T17:54:39.056Z,1.90
2018-05-18T17:57:05.397Z,2.00
2018-05-18T17:59:31.785Z,2.53
2018-05-18T18:01:58.157Z,2.00
2018-05-18T18:04:24.510Z,1.90
2018-05-18T18:06:50.857Z,2.10
2018-05-18T18:09:17.205Z,2.13
2018-05-18T18:11:43.559Z,1.90
2018-05-18T18:14:10.006Z,1.80
2018-05-18T18:16:36.336Z,2.03
2018-05-18T18:19:02.656Z,1.90
2018-05-18T18:21:29.000Z,2.00
2018-05-18T18:23:55.359Z,2.20
2018-05-18T18:26:21.728Z,1.83
2018-05-18T18:28:48.185Z,2.03
2018-05-18T18:31:14.444Z,1.90
2018-05-18T18:33:40.912Z,1.83
2018-05-18T18:36:07.333Z,1.80
2018-05-18T18:38:33.675Z,2.00
2018-05-18T18:41:00.052Z,1.97
2018-05-18T18:43:26.420Z,1.80
2018-05-18T18:45:52.747Z,2.20
2018-05-18T18:48:19.087Z,2.10
2018-05-18T18:50:45.484Z,2.27
2018-05-18T18:53:11.839Z,2.10
2018-05-18T18:55:38.206Z,2.20
2018-05-18T18:58:04.541Z,2.17
2018-05-18T19:00:30.920Z,2.33
2018-05-18T19:02:57.284Z,2.50
2018-05-18T19:05:23.626Z,2.50
2018-05-18T19:07:49.993Z,1.80
2018-05-18T19:10:16.321Z,1.90
2018-05-18T19:12:42.665Z,2.10
2018-05-18T19:15:09.030Z,2.43
2018-05-18T19:17:35.352Z,1.90
2018-05-18T19:20:01.740Z,2.00
2018-05-18T19:22:28.092Z,2.10
2018-05-18T19:24:54.473Z,2.00
2018-05-18T19:27:20.868Z,2.30
2018-05-18T19:29:47.346Z,2.10
2018-05-18T19:32:13.640Z,2.27
2018-05-18T19:34:39.989Z,2.00
2018-05-18T19:37:06.364Z,1.80
2018-05-18T19:39:32.701Z,2.30
2018-05-18T19:41:59.082Z,2.03
2018-05-18T19:44:25.397Z,3.00
2018-05-18T19:46:51.716Z,2.13
2018-05-18T19:49:18.057Z,2.10
2018-05-18T19:51:44.419Z,2.30
2018-05-18T19:54:10.821Z,2.30
2018-05-18T19:56:37.136Z,2.40
2018-05-18T19:59:03.492Z,2.20
2018-05-18T20:01:29.863Z,2.30
2018-05-18T20:03:56.220Z,2.40
2018-05-18T20:06:22.648Z,2.30
2018-05-18T20:08:49.028Z,2.50
2018-05-18T20:11:15.397Z,2.40
2018-05-18T20:13:41.712Z,1.80
2018-05-18T20:16:08.175Z,2.20
2018-05-18T20:18:34.518Z,2.23
2018-05-18T20:21:00.910Z,2.10
2018-05-18T20:23:27.228Z,2.20
2018-05-18T20:25:53.546Z,2.60
2018-05-18T20:28:19.900Z,2.10
2018-05-18T20:30:46.242Z,2.37
2018-05-18T20:33:12.628Z,2.30
2018-05-18T20:35:38.968Z,2.10
2018-05-18T20:38:05.373Z,2.10
2018-05-18T20:40:31.729Z,2.23
2018-05-18T20:42:58.100Z,2.00
2018-05-18T20:45:24.479Z,2.20
2018-05-18T20:47:50.841Z,2.10
2018-05-18T20:50:17.212Z,2.17
2018-05-18T20:52:43.571Z,2.33
2018-05-18T20:55:09.973Z,2.10
2018-05-18T20:57:36.332Z,2.27
2018-05-18T21:00:02.736Z,1.97
2018-05-18T21:02:29.105Z,2.20
2018-05-18T21:04:55.422Z,2.40
2018-05-18T21:07:21.787Z,2.10
2018-05-18T21:09:48.148Z,1.80
2018-05-18T21:12:14.463Z,2.07
2018-05-18T21:14:40.827Z,2.17
2018-05-18T21:17:07.184Z,2.00
2018-05-18T21:19:33.545Z,2.50
2018-05-18T21:21:59.901Z,2.30
2018-05-18T21:24:26.269Z,2.20
2018-05-18T21:26:52.608Z,1.80
2018-05-18T21:29:18.944Z,2.30
2018-05-18T21:31:45.331Z,2.10
2018-05-18T21:34:11.655Z,2.30
2018-05-18T21:36:38.024Z,2.30
2018-05-18T21:39:04.416Z,2.07
2018-05-18T21:41:30.747Z,2.00
2018-05-18T21:43:57.109Z,2.40
2018-05-18T21:46:23.452Z,2.27
2018-05-18T21:48:49.812Z,2.10
2018-05-18T21:51:16.140Z,2.20
2018-05-18T21:53:42.509Z,2.27
2018-05-18T21:56:08.843Z,2.67
2018-05-18T21:58:35.203Z,2.03
2018-05-18T22:01:01.538Z,2.40
2018-05-18T22:03:27.906Z,2.33
2018-05-18T22:05:54.296Z,2.37
2018-05-18T22:08:20.647Z,2.30
2018-05-18T22:10:46.969Z,2.00
2018-05-18T22:13:13.294Z,2.33
2018-05-18T22:15:39.617Z,2.17
2018-05-18T22:18:06.040Z,2.40
2018-05-18T22:20:32.355Z,2.10
2018-05-18T22:22:58.767Z,2.30
2018-05-18T22:25:25.105Z,2.20
2018-05-18T22:27:51.437Z,1.87
2018-05-18T22:30:17.824Z,2.07
2018-05-18T22:32:44.229Z,1.90
2018-05-18T22:35:10.656Z,2.20
2018-05-18T22:37:36.994Z,2.10
2018-05-18T22:40:03.364Z,2.10
2018-05-18T22:42:29.732Z,2.50
2018-05-18T22:44:56.126Z,2.20
2018-05-18T22:47:22.492Z,2.10
2018-05-18T22:49:48.818Z,2.20
2018-05-18T22:52:15.184Z,2.03
2018-05-18T22:54:41.567Z,2.03
2018-05-18T22:57:07.938Z,3.43
2018-05-18T22:59:34.264Z,2.27
2018-05-18T23:02:00.650Z,2.17
2018-05-18T23:04:26.988Z,2.40
2018-05-18T23:06:53.364Z,2.10
2018-05-18T23:09:19.695Z,2.50
2018-05-18T23:11:46.012Z,2.30
2018-05-18T23:14:12.375Z,2.50
2018-05-18T23:16:38.799Z,2.37
2018-05-18T23:19:05.140Z,2.50
2018-05-18T23:21:31.536Z,2.50
2018-05-18T23:23:57.868Z,2.20
2018-05-18T23:26:24.205Z,2.30
2018-05-18T23:28:50.524Z,2.70
2018-05-18T23:31:16.862Z,2.47
2018-05-18T23:33:43.237Z,2.30
2018-05-18T23:36:09.556Z,2.30
2018-05-18T23:38:35.885Z,2.07
2018-05-18T23:41:02.204Z,2.30
2018-05-18T23:43:28.531Z,2.13
2018-05-18T23:45:54.890Z,2.03
2018-05-18T23:48:21.263Z,2.07
2018-05-18T23:50:47.596Z,1.90
2018-05-18T23:53:13.953Z,1.90
2018-05-18T23:55:40.341Z,2.30
2018-05-18T23:58:06.664Z,2.30
